« 美ら島エアーフェスタ2017【二日目】 那覇空港 2017/12/10 sun | トップページ | ### RJNT log 201712 ### »

2017/12/30

撮収 富山空港 2017/12/30 sat

暇そうにしていますが、年末はやはりヤボ要が立て込んでおり、午後にチョコット2017年最後の出撃です。

RJNT 300300Z 18004KT 9999 FEW020 BKN040 BKN050 04/01 Q1024

20171230_rjnt_00b2296

もう、ポイントまで間に合わない。途中で待ち構え。

20171230_rjnt_01b2296

CSN614 RJNT-ZYTL B-2296 A319-132

20171230_rjnt_02b5261

久しぶりの赤いの・・

20171230_rjnt_03b5261

穏やかな天気で良かった。

20171230_rjnt_04b5261

CSH825 ZSPD-RJNT B-5261 B737-76D

20171230_rjnt_05b5261

RJNT 300400Z VRB02KT 9999 FEW020 BKN040 BKN050 05/01 Q1024

20171230_rjnt_06ja08fj

続いて、今日はお茶緑

20171230_rjnt_07ja08fj

26日のチャーターはキャンセルとなったので、どうなるかと・・

20171230_rjnt_08ja08fj

FDA9153 RJFU-RJNT JA08FJ ERJ-175STD

20171230_rjnt_09ja08fj

フェリーで長崎からやって来ました。

20171230_rjnt_10ja6516

JA6516 AS350B3 AKF

20171230_rjnt_11ja08fj

変った取り合わせ

20171230_rjnt_12sol

空港ビルでは、今年のフォトコンテンスト作品展中

20171230_rjnt_13sol

FDAの出発時間まで、作品鑑賞としませう。

20171230_rjnt_14photo

手前のパネルもあとしばらく

20171230_rjnt_15photo

マニアの作品は、珍しい機体が多いね。

20171230_rjnt_16ja08fj

赤と緑の取り合わせ

20171230_rjnt_17ja6516

JA6516 AS350B3 AKF

RJNT 300500Z 23003KT 9999 FEW020 BKN050 05/01 Q1024

20171230_rjnt_18b5261

今年一年お疲れ様でした。いってらっしゃい。

20171230_rjnt_19b5261

CSH826 RJNT-ZSPD B-5261 B737-76D

20171230_rjnt_20b5261

お茶緑に見送られて・・

20171230_rjnt_21b5261

20171230_rjnt_22b5261

20171230_rjnt_23b5261

来年も無事に運航できますことを祈ります。

20171230_rjnt_24ja08fj

はい、良い新年を・・

20171230_rjnt_25ja08fj

FDA8154 RJNT-RJFU JA08FJ ERJ-175STD

20171230_rjnt_26ja08fj

20171230_rjnt_27ja08fj

20171230_rjnt_28ja08fj

20171230_rjnt_29ja08fj

今年最後の一枚になりました。来年も良いお年を。

|

« 美ら島エアーフェスタ2017【二日目】 那覇空港 2017/12/10 sun | トップページ | ### RJNT log 201712 ### »

富山空港」カテゴリの記事

コメント

コメントを書く



(ウェブ上には掲載しません)


コメントは記事投稿者が公開するまで表示されません。



トラックバック


この記事へのトラックバック一覧です: 撮収 富山空港 2017/12/30 sat:

« 美ら島エアーフェスタ2017【二日目】 那覇空港 2017/12/10 sun | トップページ | ### RJNT log 201712 ### »